Time;durP1;ratioP1;P1;durP2;ratioP2;P2;SDS_P1;SDS_P2;PMS_P1;PMS_P2;Temp;Humidity;BMP_temperature;BMP_pressure;BME280_temperature;BME280_humidity;BME280_pressure;Samples;Min_cycle;Max_cycle;Signal;HPM_P1;HPM_P2
2022/03/08 00:02:12;;;;;;;24.75;9.68;;;;;;;-1.37;100.00;94700.34;5079748;28;20044;-49
2022/03/08 00:04:40;;;;;;;20.88;9.57;;;;;;;-1.32;100.00;94702.41;5079077;28;20051;-47
2022/03/08 00:07:07;;;;;;;21.92;10.45;;;;;;;-1.36;100.00;94702.72;5080082;28;20490;-48
2022/03/08 00:09:34;;;;;;;20.63;10.55;;;;;;;-1.32;100.00;94700.66;5079474;28;20044;-49
2022/03/08 00:12:00;;;;;;;20.08;10.15;;;;;;;-1.30;100.00;94700.50;5075926;28;20036;-48
2022/03/08 00:14:27;;;;;;;20.75;10.38;;;;;;;-1.33;100.00;94706.75;5107884;28;20040;-50
2022/03/08 00:16:54;;;;;;;19.85;10.43;;;;;;;-1.28;100.00;94708.78;5108013;28;20095;-47
2022/03/08 00:19:22;;;;;;;21.40;9.75;;;;;;;-1.27;100.00;94703.53;5106973;28;20485;-47
2022/03/08 00:21:49;;;;;;;18.55;9.27;;;;;;;-1.28;100.00;94708.78;5107746;28;20059;-47
2022/03/08 00:24:16;;;;;;;18.83;10.15;;;;;;;-1.27;100.00;94705.28;5107688;28;20048;-47
2022/03/08 00:26:43;;;;;;;18.63;10.98;;;;;;;-1.33;100.00;94700.81;5109095;28;20066;-46
2022/03/08 00:29:11;;;;;;;20.10;8.65;;;;;;;-1.37;100.00;94696.03;5107786;28;20043;-46
2022/03/08 00:31:37;;;;;;;20.17;9.75;;;;;;;-1.37;100.00;94701.16;5089769;28;20126;-46
2022/03/08 00:34:07;;;;;;;21.73;11.05;;;;;;;-1.40;100.00;94700.66;5087133;28;20063;-50
2022/03/08 00:36:34;;;;;;;19.55;8.82;;;;;;;-1.39;100.00;94700.50;5109771;28;20050;-47
2022/03/08 00:39:01;;;;;;;18.30;9.90;;;;;;;-1.43;100.00;94696.66;5116618;28;20410;-48
2022/03/08 00:41:28;;;;;;;21.38;10.88;;;;;;;-1.40;100.00;94706.56;5107023;28;20051;-48
2022/03/08 00:43:54;;;;;;;22.55;10.80;;;;;;;-1.38;100.00;94699.53;5113242;28;20048;-48
2022/03/08 00:46:22;;;;;;;24.88;12.45;;;;;;;-1.37;100.00;94690.94;5109901;27;20044;-47
2022/03/08 00:48:50;;;;;;;26.85;14.10;;;;;;;-1.32;100.00;94694.75;5094592;27;20055;-49
2022/03/08 00:51:18;;;;;;;21.55;10.50;;;;;;;-1.37;100.00;94701.16;5094162;27;20043;-48
2022/03/08 00:53:44;;;;;;;24.58;11.35;;;;;;;-1.32;100.00;94687.09;5113744;27;20038;-48
2022/03/08 00:56:11;;;;;;;29.67;13.38;;;;;;;-1.28;100.00;94699.38;5111469;27;20455;-46
2022/03/08 00:58:38;;;;;;;25.20;12.75;;;;;;;-1.22;100.00;94700.50;5111863;27;20043;-46
2022/03/08 01:01:05;;;;;;;25.83;13.23;;;;;;;-1.26;100.00;94694.09;5111035;27;20027;-46
2022/03/08 01:03:32;;;;;;;23.08;12.10;;;;;;;-1.28;100.00;94690.91;5114340;27;20046;-47
2022/03/08 01:05:59;;;;;;;25.83;12.93;;;;;;;-1.31;100.00;94688.69;5111801;27;20044;-46
2022/03/08 01:08:27;;;;;;;26.25;12.55;;;;;;;-1.26;100.00;94694.09;5115046;27;20032;-47
2022/03/08 01:10:53;;;;;;;28.40;13.88;;;;;;;-1.32;100.00;94689.66;5088485;28;20040;-48
2022/03/08 01:13:20;;;;;;;23.73;12.05;;;;;;;-1.30;100.00;94692.84;5108692;27;20704;-49
2022/03/08 01:15:47;;;;;;;28.13;12.00;;;;;;;-1.30;100.00;94695.38;5111442;27;20039;-48
2022/03/08 01:18:14;;;;;;;21.13;11.25;;;;;;;-1.39;100.00;94679.25;5087163;28;20062;-47
2022/03/08 01:20:41;;;;;;;35.00;15.57;;;;;;;-1.32;100.00;94693.00;5089681;28;20097;-47
2022/03/08 01:23:08;;;;;;;31.60;14.27;;;;;;;-1.33;100.00;94693.16;5088624;28;20084;-46
2022/03/08 01:25:37;;;;;;;36.13;14.32;;;;;;;-1.28;100.00;94688.34;5112061;27;20052;-46
2022/03/08 01:28:03;;;;;;;26.17;13.13;;;;;;;-1.30;100.00;94690.28;5112039;27;20122;-47
2022/03/08 01:30:30;;;;;;;23.48;11.80;;;;;;;-1.36;100.00;94676.38;5095208;28;20036;-46
2022/03/08 01:32:58;;;;;;;31.02;14.88;;;;;;;-1.29;100.00;94677.34;5114598;27;20039;-46
2022/03/08 01:35:25;;;;;;;28.90;12.82;;;;;;;-1.22;100.00;94677.50;5112686;27;20044;-48
2022/03/08 01:37:52;;;;;;;30.65;14.27;;;;;;;-1.26;100.00;94676.22;5116753;27;20058;-47
2022/03/08 01:40:20;;;;;;;28.33;13.27;;;;;;;-1.23;100.00;94675.91;5091363;28;20044;-47
2022/03/08 01:42:50;;;;;;;30.95;14.23;;;;;;;-1.25;100.00;94682.94;5111005;27;20039;-48
2022/03/08 01:45:20;;;;;;;32.90;15.40;;;;;;;-1.26;100.00;94676.22;5113045;27;20134;-51
2022/03/08 01:47:47;;;;;;;30.83;13.20;;;;;;;-1.29;100.00;94676.56;5111471;27;20869;-47
2022/03/08 01:50:15;;;;;;;23.60;12.52;;;;;;;-1.32;100.00;94682.78;5113270;27;20040;-47
2022/03/08 01:52:43;;;;;;;32.10;11.23;;;;;;;-1.39;100.00;94680.06;5118533;27;20046;-50
2022/03/08 01:55:12;;;;;;;30.08;13.75;;;;;;;-1.42;100.00;94672.72;5110924;27;20048;-47
2022/03/08 01:57:39;;;;;;;28.42;12.98;;;;;;;-1.39;100.00;94674.97;5111347;27;20048;-49
2022/03/08 02:00:10;;;;;;;25.10;12.40;;;;;;;-1.39;100.00;94677.53;5111251;27;20085;-47
2022/03/08 02:02:41;;;;;;;23.73;11.40;;;;;;;-1.38;100.00;94674.00;5111098;27;20413;-46
2022/03/08 02:05:09;;;;;;;38.10;13.98;;;;;;;-1.40;100.00;94665.69;5111126;27;20047;-46
2022/03/08 02:07:36;;;;;;;25.75;12.27;;;;;;;-1.41;100.00;94669.19;5113428;27;20577;-47
2022/03/08 02:10:05;;;;;;;37.58;15.35;;;;;;;-1.35;100.00;94668.56;5116611;27;20536;-50
2022/03/08 02:12:34;;;;;;;27.60;13.20;;;;;;;-1.37;100.00;94673.03;5110171;27;20405;-46
2022/03/08 02:15:21;;;;;;;29.23;13.60;;;;;;;-1.41;100.00;94664.09;5109893;27;20047;-46
2022/03/08 02:17:49;;;;;;;30.52;14.10;;;;;;;-1.62;100.00;94630.56;5108748;27;20048;-46
2022/03/08 02:20:16;;;;;;;27.17;13.15;;;;;;;-1.45;100.00;94667.94;5110465;27;20053;-46
2022/03/08 02:22:45;;;;;;;25.63;12.60;;;;;;;-1.46;100.00;94671.47;5109406;27;20063;-47
2022/03/08 02:25:13;;;;;;;27.13;12.30;;;;;;;-1.48;100.00;94678.47;5110564;27;20044;-47
2022/03/08 02:27:45;;;;;;;26.88;13.20;;;;;;;-1.43;100.00;94680.53;5114970;27;20120;-46
2022/03/08 02:30:16;;;;;;;34.88;11.15;;;;;;;-1.45;100.00;94673.03;5110771;27;20063;-46
2022/03/08 02:32:44;;;;;;;25.35;11.18;;;;;;;-1.41;100.00;94674.31;5111768;27;20063;-49
2022/03/08 02:35:13;;;;;;;24.63;12.18;;;;;;;-1.41;100.00;94681.97;5110495;27;20051;-51
2022/03/08 02:37:42;;;;;;;20.73;11.63;;;;;;;-1.37;100.00;94680.72;5113831;27;20531;-47
2022/03/08 02:40:13;;;;;;;28.10;13.25;;;;;;;-1.33;100.00;94686.31;5110036;27;20472;-47
2022/03/08 02:42:41;;;;;;;23.33;11.23;;;;;;;-1.26;100.00;94681.31;5110232;27;20039;-46
2022/03/08 02:45:10;;;;;;;25.95;12.23;;;;;;;-1.36;100.00;94684.84;5110071;27;20035;-47
2022/03/08 02:47:37;;;;;;;19.52;10.10;;;;;;;-1.49;100.00;94682.00;5111879;27;20085;-46
2022/03/08 02:50:06;;;;;;;28.52;15.48;;;;;;;-1.46;100.00;94685.97;5109201;27;20116;-46
2022/03/08 02:52:34;;;;;;;24.08;10.48;;;;;;;-1.49;100.00;94686.31;5109860;27;20097;-47
2022/03/08 02:55:01;;;;;;;27.02;11.20;;;;;;;-1.49;100.00;94676.88;5109478;27;20171;-47
2022/03/08 02:57:28;;;;;;;28.70;13.02;;;;;;;-1.42;100.00;94694.94;5109472;27;20142;-47
2022/03/08 02:59:55;;;;;;;34.38;13.70;;;;;;;-1.37;100.00;94690.94;5109699;27;20043;-49
2022/03/08 03:02:22;;;;;;;26.90;11.90;;;;;;;-1.42;100.00;94697.47;5111042;27;20046;-47
2022/03/08 03:04:49;;;;;;;28.70;11.13;;;;;;;-1.47;100.00;94699.72;5109647;27;20051;-47
2022/03/08 03:07:16;;;;;;;29.95;13.57;;;;;;;-1.58;100.00;94703.38;5109673;27;20049;-47
2022/03/08 03:09:43;;;;;;;30.05;13.07;;;;;;;-1.58;100.00;94708.50;5109864;27;20074;-47
2022/03/08 03:12:10;;;;;;;26.95;10.75;;;;;;;-1.51;100.00;94704.34;5107901;27;20039;-51
2022/03/08 03:14:37;;;;;;;32.58;14.05;;;;;;;-1.49;100.00;94717.75;5114668;27;20527;-48
2022/03/08 03:17:03;;;;;;;34.00;13.60;;;;;;;-1.53;100.00;94716.47;5111607;27;20043;-46
2022/03/08 03:19:30;;;;;;;37.17;14.93;;;;;;;-1.55;100.00;94715.81;5110297;27;20043;-48
2022/03/08 03:21:57;;;;;;;39.13;14.52;;;;;;;-1.52;100.00;94712.16;5111042;27;20047;-46
2022/03/08 03:24:24;;;;;;;28.42;13.55;;;;;;;-1.50;100.00;94721.25;5109642;27;20036;-46
2022/03/08 03:26:50;;;;;;;38.50;16.15;;;;;;;-1.49;100.00;94717.75;5114377;27;20084;-47
2022/03/08 03:29:17;;;;;;;34.90;15.80;;;;;;;-1.43;100.00;94717.09;5109457;27;20044;-46
2022/03/08 03:31:44;;;;;;;36.85;15.88;;;;;;;-1.44;100.00;94710.41;5111224;27;20124;-46
2022/03/08 03:34:11;;;;;;;37.20;16.23;;;;;;;-1.47;100.00;94715.84;5111145;27;20069;-46
2022/03/08 03:36:37;;;;;;;26.60;12.55;;;;;;;-1.47;100.00;94718.38;5091487;28;20663;-46
2022/03/08 03:39:05;;;;;;;30.35;15.73;;;;;;;-1.50;100.00;94723.81;5109491;27;20699;-46
2022/03/08 03:41:32;;;;;;;20.00;10.85;;;;;;;-1.52;100.00;94728.28;5112739;27;20047;-47
2022/03/08 03:43:59;;;;;;;33.08;14.93;;;;;;;-1.51;100.00;94714.56;5114168;27;20047;-47
2022/03/08 03:46:26;;;;;;;22.92;10.80;;;;;;;-1.51;100.00;94719.66;5108804;27;20043;-49
2022/03/08 03:48:53;;;;;;;24.35;12.02;;;;;;;-1.57;100.00;94728.78;5108721;27;20039;-50
2022/03/08 03:51:19;;;;;;;21.60;10.35;;;;;;;-1.58;100.00;94727.16;5111316;27;20056;-46
2022/03/08 03:53:46;;;;;;;22.33;11.40;;;;;;;-1.62;100.00;94727.63;5108902;27;20693;-46
2022/03/08 03:56:13;;;;;;;27.88;12.88;;;;;;;-1.61;100.00;94724.13;5111837;27;20063;-46
2022/03/08 03:58:40;;;;;;;23.85;11.05;;;;;;;-1.60;100.00;94730.84;5110044;27;20047;-49
2022/03/08 04:01:06;;;;;;;24.13;11.35;;;;;;;-1.66;100.00;94726.34;5111815;28;20051;-46
2022/03/08 04:03:33;;;;;;;19.60;10.02;;;;;;;-1.57;100.00;94725.41;5109028;27;20497;-50
2022/03/08 04:06:00;;;;;;;21.73;11.50;;;;;;;-1.60;100.00;94726.53;5110818;28;20140;-46
2022/03/08 04:08:28;;;;;;;25.33;12.30;;;;;;;-1.59;100.00;94727.31;5107831;28;20047;-46
2022/03/08 04:10:55;;;;;;;20.58;11.30;;;;;;;-1.53;100.00;94716.47;5108605;28;20043;-46
2022/03/08 04:13:22;;;;;;;26.52;10.48;;;;;;;-1.46;100.00;94725.09;5104553;28;20044;-47
2022/03/08 04:15:48;;;;;;;19.88;11.30;;;;;;;-1.39;100.00;94727.81;5108364;28;20569;-46
2022/03/08 04:18:15;;;;;;;22.45;11.00;;;;;;;-1.42;100.00;94723.81;5109268;28;20093;-47
2022/03/08 04:20:42;;;;;;;19.70;11.23;;;;;;;-1.45;100.00;94719.03;5110579;27;20093;-47
2022/03/08 04:23:09;;;;;;;33.08;15.30;;;;;;;-1.45;100.00;94720.78;5114249;27;20039;-48
2022/03/08 04:25:35;;;;;;;28.77;14.27;;;;;;;-1.40;100.00;94721.91;5113543;27;20043;-46
2022/03/08 04:28:06;;;;;;;29.75;14.43;;;;;;;-1.41;100.00;94720.28;5114891;27;20051;-46
2022/03/08 04:30:32;;;;;;;25.90;13.32;;;;;;;-1.43;100.00;94722.22;5112828;27;20451;-46
2022/03/08 04:32:59;;;;;;;25.48;12.38;;;;;;;-1.51;100.00;94717.13;5112700;27;20043;-46
2022/03/08 04:35:26;;;;;;;21.73;11.15;;;;;;;-1.47;100.00;94720.94;5111386;27;20048;-48
2022/03/08 04:37:53;;;;;;;36.60;17.80;;;;;;;-1.50;100.00;94728.91;5117062;27;20059;-46
2022/03/08 04:40:20;;;;;;;48.42;21.48;;;;;;;-1.50;100.00;94726.34;5112110;27;20039;-46
2022/03/08 04:42:46;;;;;;;28.17;15.25;;;;;;;-1.51;100.00;94727.34;5116837;27;20052;-46
2022/03/08 04:45:14;;;;;;;28.60;14.82;;;;;;;-1.52;100.00;94718.06;5113515;27;20044;-47
2022/03/08 04:47:41;;;;;;;32.03;13.63;;;;;;;-1.52;100.00;94722.38;5113387;27;20131;-47
2022/03/08 04:50:10;;;;;;;26.15;12.27;;;;;;;-1.47;100.00;94720.94;5113138;27;20048;-47
2022/03/08 04:52:38;;;;;;;21.23;10.15;;;;;;;-1.50;100.00;94718.69;5114492;27;20043;-47
2022/03/08 04:55:05;;;;;;;23.30;11.55;;;;;;;-1.46;100.00;94717.44;5112303;27;20044;-47
2022/03/08 04:57:31;;;;;;;27.15;13.50;;;;;;;-1.45;100.00;94719.03;5112517;27;20040;-48
2022/03/08 04:59:59;;;;;;;28.67;15.18;;;;;;;-1.47;100.00;94710.72;5113245;27;20047;-49
2022/03/08 05:02:30;;;;;;;28.77;14.52;;;;;;;-1.48;100.00;94714.22;5093271;27;20055;-47
2022/03/08 05:04:57;;;;;;;28.33;13.68;;;;;;;-1.51;100.00;94719.66;5118884;27;20092;-49
2022/03/08 05:07:24;;;;;;;27.25;14.02;;;;;;;-1.57;100.00;94720.28;5113403;27;20043;-46
2022/03/08 05:09:50;;;;;;;28.52;13.45;;;;;;;-1.59;100.00;94717.88;5112371;27;20378;-46
2022/03/08 05:12:17;;;;;;;27.20;13.57;;;;;;;-1.56;100.00;94721.91;5111336;27;20096;-47
2022/03/08 05:14:44;;;;;;;28.27;13.95;;;;;;;-1.57;100.00;94720.28;5110783;28;20458;-47
2022/03/08 05:17:11;;;;;;;30.17;15.40;;;;;;;-1.54;100.00;94717.44;5110738;28;20104;-46
2022/03/08 05:19:37;;;;;;;24.65;11.77;;;;;;;-1.58;100.00;94711.84;5109719;28;20076;-46
2022/03/08 05:22:04;;;;;;;27.98;15.15;;;;;;;-1.54;100.00;94719.97;5112739;28;20423;-46
2022/03/08 05:24:31;;;;;;;24.48;12.30;;;;;;;-1.63;100.00;94710.72;5110057;28;20044;-46
2022/03/08 05:26:58;;;;;;;30.58;13.98;;;;;;;-1.63;100.00;94719.16;5110332;28;20044;-47
2022/03/08 05:29:24;;;;;;;28.77;15.52;;;;;;;-1.58;100.00;94721.25;5111258;28;20485;-46
2022/03/08 05:31:51;;;;;;;25.83;12.63;;;;;;;-1.59;100.00;94717.09;5109869;28;20048;-48
2022/03/08 05:34:18;;;;;;;34.47;15.38;;;;;;;-1.63;100.00;94721.72;5117135;28;20178;-46
2022/03/08 05:36:45;;;;;;;30.83;12.60;;;;;;;-1.61;100.00;94724.13;5113918;28;20060;-46
2022/03/08 05:39:11;;;;;;;37.53;14.40;;;;;;;-1.70;100.00;94712.31;5112625;28;20043;-48
2022/03/08 05:41:38;;;;;;;31.52;15.32;;;;;;;-1.62;100.00;94719.97;5113125;28;20055;-47
2022/03/08 05:44:05;;;;;;;28.95;13.48;;;;;;;-1.63;100.00;94715.81;5110372;28;20044;-46
2022/03/08 05:46:32;;;;;;;32.50;15.27;;;;;;;-1.63;100.00;94726.03;5113775;28;20043;-46
2022/03/08 05:48:59;;;;;;;33.70;15.75;;;;;;;-1.58;100.00;94723.81;5111520;28;20050;-46
2022/03/08 05:51:25;;;;;;;41.70;17.48;;;;;;;-1.54;100.00;94725.09;5110504;28;20043;-47
2022/03/08 05:53:52;;;;;;;61.30;21.50;;;;;;;-1.59;100.00;94717.88;5110102;28;20478;-47
2022/03/08 05:56:19;;;;;;;56.17;21.90;;;;;;;-1.57;100.00;94721.09;5110595;28;20040;-46
2022/03/08 05:58:46;;;;;;;66.85;21.08;;;;;;;-1.45;100.00;94729.25;5108729;28;20055;-48
2022/03/08 06:01:12;;;;;;;40.60;16.95;;;;;;;-1.45;100.00;94726.69;5110039;28;20077;-47
2022/03/08 06:03:39;;;;;;;38.17;17.23;;;;;;;-1.42;100.00;94731.47;5109285;28;20067;-46
2022/03/08 06:06:06;;;;;;;42.70;17.52;;;;;;;-1.29;100.00;94722.56;5109246;28;20036;-49
2022/03/08 06:08:33;;;;;;;30.35;14.00;;;;;;;-1.16;100.00;94733.06;5109770;28;20134;-47
2022/03/08 06:11:00;;;;;;;28.02;11.98;;;;;;;-1.49;100.00;94692.22;5109961;28;20036;-46
2022/03/08 06:13:27;;;;;;;24.05;12.13;;;;;;;-1.21;100.00;94733.53;5067511;27;1163842;-47
2022/03/08 06:15:53;;;;;;;32.78;16.98;;;;;;;-1.31;100.00;94743.16;5112308;27;20043;-46
2022/03/08 06:18:20;;;;;;;25.17;13.82;;;;;;;-1.16;100.00;94733.06;5111038;27;20069;-46
2022/03/08 06:20:47;;;;;;;29.70;15.88;;;;;;;-1.08;100.00;94740.75;5111015;27;20067;-46
2022/03/08 06:23:14;;;;;;;32.58;16.35;;;;;;;-0.94;100.00;94741.84;5110110;27;20043;-47
2022/03/08 06:25:41;;;;;;;32.95;16.83;;;;;;;-0.81;100.00;94747.28;5110877;27;20047;-46
2022/03/08 06:28:07;;;;;;;28.30;14.60;;;;;;;-0.89;100.00;94749.03;5110011;27;20043;-46
2022/03/08 06:30:34;;;;;;;34.72;17.45;;;;;;;-0.72;100.00;94750.63;5111812;27;20107;-48
2022/03/08 06:33:01;;;;;;;41.17;18.77;;;;;;;-0.65;100.00;94746.44;5111809;27;20051;-46
2022/03/08 06:35:28;;;;;;;33.60;17.15;;;;;;;-0.54;100.00;94752.16;5090934;27;20047;-46
2022/03/08 06:37:54;;;;;;;33.35;15.50;;;;;;;-0.33;100.00;94749.84;5112825;27;20051;-46
2022/03/08 06:40:21;;;;;;;37.05;17.25;;;;;;;-0.28;100.00;94747.59;5111402;27;20043;-48
2022/03/08 06:42:49;;;;;;;28.90;15.70;;;;;;;-0.10;100.00;94754.25;5110522;27;20039;-47
2022/03/08 06:45:16;;;;;;;31.10;16.40;;;;;;;-0.02;100.00;94754.22;5111273;27;20074;-47
2022/03/08 06:47:43;;;;;;;34.25;17.35;;;;;;;0.10;100.00;94755.44;5112125;27;20047;-46
2022/03/08 06:50:10;;;;;;;36.85;19.02;;;;;;;0.23;100.00;94761.78;5107948;27;20047;-46
2022/03/08 06:52:37;;;;;;;32.08;14.73;;;;;;;0.11;100.00;94762.16;5109740;27;20039;-46
2022/03/08 06:55:04;;;;;;;26.38;13.50;;;;;;;0.12;100.00;94758.63;5109389;27;20039;-45
2022/03/08 06:57:31;;;;;;;32.65;14.98;;;;;;;0.16;100.00;94753.97;5109123;27;20039;-46
2022/03/08 06:59:58;;;;;;;28.60;13.77;;;;;;;0.04;100.00;94756.13;5110228;27;20064;-46
2022/03/08 07:02:26;;;;;;;27.35;14.63;;;;;;;0.04;100.00;94761.25;5109136;27;20431;-48
2022/03/08 07:04:52;;;;;;;37.30;17.38;;;;;;;0.07;100.00;94760.88;5114009;27;20042;-46
2022/03/08 07:07:19;;;;;;;27.60;12.60;;;;;;;0.02;100.00;94752.13;5107948;27;20103;-50
2022/03/08 07:09:47;;;;;;;19.73;11.40;;;;;;;0.03;100.00;94759.63;5103099;27;20039;-46
2022/03/08 07:12:14;;;;;;;26.95;13.35;;;;;;;0.15;100.00;94758.28;5102747;27;20466;-48
2022/03/08 07:14:41;;;;;;;22.55;10.60;;;;;;;0.26;100.00;94758.88;5105011;27;20053;-48
2022/03/08 07:17:08;;;;;;;22.85;11.57;;;;;;;0.15;100.00;94758.28;5100065;27;20051;-51
2022/03/08 07:19:35;;;;;;;18.23;8.02;;;;;;;0.00;100.00;94760.00;5104854;27;20055;-47
2022/03/08 07:22:02;;;;;;;20.38;11.10;;;;;;;0.08;100.00;94759.94;5101105;27;20035;-46
2022/03/08 07:24:29;;;;;;;22.50;12.60;;;;;;;0.14;100.00;94751.56;5102632;27;20051;-46
2022/03/08 07:26:56;;;;;;;37.17;18.10;;;;;;;0.30;100.00;94755.03;5105370;27;20136;-47
2022/03/08 07:29:23;;;;;;;21.48;10.52;;;;;;;0.26;100.00;94754.56;5108795;27;20061;-47
2022/03/08 07:31:49;;;;;;;23.70;11.38;;;;;;;0.32;100.00;94753.88;5098288;27;20051;-48
2022/03/08 07:34:16;;;;;;;25.42;12.32;;;;;;;0.35;100.00;94757.88;5104238;27;20051;-48
2022/03/08 07:36:43;;;;;;;22.58;11.48;;;;;;;0.41;100.00;94759.75;5108397;27;20054;-47
2022/03/08 07:39:10;;;;;;;19.40;10.55;;;;;;;0.53;100.00;94748.16;5110802;27;20036;-46
2022/03/08 07:41:37;;;;;;;24.75;10.93;;;;;;;0.43;100.00;94755.25;5106349;27;20043;-50
2022/03/08 07:44:04;;;;;;;23.90;11.60;;;;;;;0.30;100.00;94749.91;5109848;27;20047;-47
2022/03/08 07:46:31;;;;;;;20.85;11.13;;;;;;;0.32;100.00;94747.97;5106726;28;20142;-46
2022/03/08 07:48:58;;;;;;;23.88;13.38;;;;;;;0.37;100.00;94755.94;5107863;27;20051;-48
2022/03/08 07:51:45;;;;;;;23.80;12.18;;;;;;;0.19;100.00;94759.56;5103489;27;20062;-46
2022/03/08 07:54:12;;;;;;;28.20;14.13;;;;;;;0.35;100.00;94747.63;5100818;27;20524;-49
2022/03/08 07:56:39;;;;;;;29.38;13.55;;;;;;;0.35;100.00;94745.84;5107006;27;20261;-47
2022/03/08 07:59:06;;;;;;;18.90;11.02;;;;;;;0.25;100.00;94747.03;5109150;27;20040;-48
2022/03/08 08:01:33;;;;;;;21.20;11.13;;;;;;;0.21;100.00;94750.91;5108341;27;20068;-47
2022/03/08 08:04:00;;;;;;;24.30;10.95;;;;;;;0.10;100.00;94745.19;5106306;28;20605;-47
2022/03/08 08:06:27;;;;;;;25.38;13.02;;;;;;;0.11;100.00;94746.81;5102295;28;20108;-48
2022/03/08 08:08:53;;;;;;;24.13;12.85;;;;;;;0.21;100.00;94748.34;5102387;28;20128;-50
2022/03/08 08:11:20;;;;;;;57.65;20.45;;;;;;;0.26;100.00;94739.19;5105018;28;20048;-47
2022/03/08 08:13:48;;;;;;;24.65;12.68;;;;;;;0.18;100.00;94741.78;5102625;28;20478;-48
2022/03/08 08:16:17;;;;;;;33.33;16.08;;;;;;;0.01;100.00;94748.75;5106763;28;20032;-48
2022/03/08 08:18:44;;;;;;;24.75;11.30;;;;;;;0.00;100.00;94744.63;5101952;28;20055;-47
2022/03/08 08:21:11;;;;;;;22.77;9.98;;;;;;;0.03;100.00;94744.28;5099661;28;20113;-47
2022/03/08 08:23:38;;;;;;;30.90;12.85;;;;;;;0.11;100.00;94746.81;5099668;28;20048;-48
2022/03/08 08:26:04;;;;;;;32.95;16.67;;;;;;;0.23;100.00;94743.84;5098219;28;20080;-49
2022/03/08 08:28:31;;;;;;;32.20;16.25;;;;;;;0.11;100.00;94751.09;5097468;28;20536;-49
2022/03/08 08:30:59;;;;;;;25.75;14.13;;;;;;;-0.05;100.00;94746.88;5098700;28;20054;-48
2022/03/08 08:33:26;;;;;;;21.63;10.50;;;;;;;0.02;100.00;94742.69;5101411;28;20136;-51
2022/03/08 08:35:55;;;;;;;25.58;13.57;;;;;;;-0.03;100.00;94744.94;5103052;28;20051;-47
2022/03/08 08:38:22;;;;;;;13.02;8.27;;;;;;;-0.22;100.00;94749.50;5101857;28;20036;-47
2022/03/08 08:40:49;;;;;;;23.73;11.80;;;;;;;-0.25;100.00;94742.16;5099881;28;20051;-47
2022/03/08 08:43:16;;;;;;;25.88;11.63;;;;;;;-0.27;100.00;94744.09;5102862;28;20092;-47
2022/03/08 08:45:42;;;;;;;21.08;12.25;;;;;;;-0.34;100.00;94753.41;5104070;28;20112;-49
2022/03/08 08:48:11;;;;;;;21.02;10.18;;;;;;;-0.36;100.00;94749.38;5105320;28;20043;-48
2022/03/08 08:50:37;;;;;;;23.40;11.07;;;;;;;-0.55;100.00;94750.56;5102738;28;20517;-47
2022/03/08 08:53:04;;;;;;;25.83;11.23;;;;;;;-0.54;100.00;94757.28;5106305;28;20028;-51
2022/03/08 08:55:33;;;;;;;17.33;9.80;;;;;;;-0.72;100.00;94745.50;5107201;28;20421;-48
2022/03/08 08:58:00;;;;;;;21.30;10.32;;;;;;;-0.72;100.00;94760.84;5106421;28;20039;-47
2022/03/08 09:00:27;;;;;;;32.63;15.57;;;;;;;-0.85;100.00;94760.53;5103296;28;20573;-49
2022/03/08 09:02:54;;;;;;;23.17;11.68;;;;;;;-0.82;100.00;94771.22;5104660;28;20046;-47
2022/03/08 09:05:21;;;;;;;8.65;5.13;;;;;;;-0.96;100.00;94765.00;5100584;28;20039;-49
2022/03/08 09:07:48;;;;;;;30.10;12.63;;;;;;;-1.14;100.00;94764.38;5106609;27;20167;-47
2022/03/08 09:10:15;;;;;;;24.67;12.35;;;;;;;-1.00;100.00;94758.63;5110114;27;20036;-46
2022/03/08 09:12:43;;;;;;;24.88;11.88;;;;;;;-1.15;100.00;94755.13;5109727;27;20055;-47
2022/03/08 09:15:10;;;;;;;23.95;12.52;;;;;;;-1.25;100.00;94764.72;5108394;27;20485;-47
2022/03/08 09:17:37;;;;;;;20.38;8.48;;;;;;;-1.25;100.00;94754.47;5112824;27;20043;-49
2022/03/08 09:20:06;;;;;;;23.27;10.63;;;;;;;-1.21;100.00;94765.97;5117405;27;20429;-47
2022/03/08 09:22:33;;;;;;;25.55;12.68;;;;;;;-1.24;100.00;94756.06;5110256;27;20093;-45
2022/03/08 09:24:59;;;;;;;22.25;12.50;;;;;;;-1.21;100.00;94760.88;5104751;27;20108;-51
2022/03/08 09:27:26;;;;;;;26.70;11.57;;;;;;;-1.27;100.00;94761.50;5107239;27;20044;-47
2022/03/08 09:29:53;;;;;;;27.75;13.13;;;;;;;-1.29;100.00;94763.44;5107859;27;20056;-48
2022/03/08 09:32:20;;;;;;;21.70;10.98;;;;;;;-1.25;100.00;94759.59;5108978;27;20031;-47
2022/03/08 09:34:46;;;;;;;24.95;11.43;;;;;;;-1.28;100.00;94765.00;5105403;27;20044;-48
2022/03/08 09:37:14;;;;;;;30.20;12.57;;;;;;;-1.31;100.00;94761.03;5104803;27;20497;-48
2022/03/08 09:39:41;;;;;;;20.70;11.20;;;;;;;-1.30;100.00;94759.28;5108354;27;20044;-49
2022/03/08 09:42:08;;;;;;;19.95;9.95;;;;;;;-1.32;100.00;94763.75;5111958;27;21402;-52
2022/03/08 09:44:36;;;;;;;24.13;11.75;;;;;;;-1.39;100.00;94766.13;5111064;27;20043;-48
2022/03/08 09:47:03;;;;;;;28.77;12.98;;;;;;;-1.36;100.00;94774.28;5107127;27;20059;-47
2022/03/08 09:49:32;;;;;;;29.35;13.88;;;;;;;-1.45;100.00;94770.13;5107306;27;20043;-47
2022/03/08 09:51:58;;;;;;;27.08;12.90;;;;;;;-1.42;100.00;94758.81;5110582;27;20043;-49
2022/03/08 09:54:25;;;;;;;16.98;8.80;;;;;;;-1.27;100.00;94771.75;5109159;27;20039;-47
2022/03/08 09:56:52;;;;;;;32.08;15.88;;;;;;;-1.51;100.00;94768.22;5110272;27;20051;-47
2022/03/08 09:59:19;;;;;;;16.23;10.02;;;;;;;-1.49;100.00;94773.16;5108105;27;20113;-48
2022/03/08 10:01:47;;;;;;;17.15;10.45;;;;;;;-1.52;100.00;94774.25;5109834;27;20046;-47
2022/03/08 10:04:19;;;;;;;30.88;13.38;;;;;;;-1.46;100.00;94772.81;5109036;27;20100;-47
2022/03/08 10:07:11;;;;;;;27.92;14.50;;;;;;;-1.54;100.00;94769.31;5111521;27;20669;-47
2022/03/08 10:09:38;;;;;;;30.60;13.23;;;;;;;-1.43;100.00;94767.41;5112162;27;20035;-48
2022/03/08 10:12:16;;;;;;;19.60;9.88;;;;;;;-1.35;100.00;94767.44;5108158;27;20043;-48
2022/03/08 10:14:44;;;;;;;32.42;15.63;;;;;;;-1.38;100.00;94765.97;5104566;27;20055;-47
2022/03/08 10:17:31;;;;;;;21.48;10.10;;;;;;;-1.26;100.00;94768.22;5107164;27;20131;-48
2022/03/08 10:19:58;;;;;;;21.75;11.13;;;;;;;-1.24;100.00;94756.06;5108858;27;20039;-48
2022/03/08 10:22:28;;;;;;;30.05;14.43;;;;;;;-1.14;100.00;94766.94;5109961;27;20448;-50
2022/03/08 10:25:15;;;;;;;31.15;15.07;;;;;;;-1.14;100.00;94764.38;5107111;27;20044;-48
2022/03/08 10:27:54;;;;;;;19.27;9.82;;;;;;;-1.10;100.00;94775.88;5114370;27;20135;-48
2022/03/08 10:30:26;;;;;;;28.23;15.95;;;;;;;-0.92;100.00;94764.69;5107407;27;20532;-47
2022/03/08 10:33:03;;;;;;;29.63;13.73;;;;;;;-0.82;100.00;94770.44;5109259;27;20142;-48
2022/03/08 10:35:31;;;;;;;30.58;15.73;;;;;;;-0.77;100.00;94778.44;5110514;27;20043;-46
2022/03/08 10:38:05;;;;;;;34.10;15.15;;;;;;;-0.81;100.00;94769.47;5115330;27;20074;-48
2022/03/08 10:40:34;;;;;;;22.48;9.57;;;;;;;-0.77;100.00;94768.19;5108450;27;20050;-49
2022/03/08 10:43:04;;;;;;;26.60;12.48;;;;;;;-0.71;100.00;94767.53;5109169;27;20085;-47
2022/03/08 10:45:32;;;;;;;39.65;19.00;;;;;;;-0.74;100.00;94772.97;5109140;27;20104;-51
2022/03/08 10:48:00;;;;;;;24.15;12.40;;;;;;;-0.70;100.00;94764.03;5109709;27;20442;-48
2022/03/08 10:50:30;;;;;;;30.10;11.98;;;;;;;-0.79;100.00;94770.13;5110524;27;20040;-47
2022/03/08 10:52:59;;;;;;;32.05;15.98;;;;;;;-0.83;100.00;94761.16;5114505;27;20035;-48
2022/03/08 10:55:35;;;;;;;29.55;15.43;;;;;;;-0.65;100.00;94772.03;5111123;27;20043;-48
2022/03/08 10:58:08;;;;;;;37.03;16.60;;;;;;;-0.55;100.00;94776.16;5113318;27;20040;-48
2022/03/08 11:00:40;;;;;;;41.13;17.40;;;;;;;-0.46;100.00;94780.28;5110423;27;20043;-48
2022/03/08 11:03:12;;;;;;;28.23;14.32;;;;;;;-0.50;100.00;94773.91;5108411;27;20625;-50
2022/03/08 11:05:44;;;;;;;21.08;10.50;;;;;;;-0.55;100.00;94778.72;5109885;27;20047;-51
2022/03/08 11:08:12;;;;;;;28.98;13.88;;;;;;;-0.48;100.00;94769.44;5112051;27;20568;-48
2022/03/08 11:10:40;;;;;;;34.78;16.63;;;;;;;-0.37;100.00;94784.41;5110046;27;20116;-49
2022/03/08 11:13:08;;;;;;;31.83;17.08;;;;;;;-0.34;100.00;94784.09;5110678;27;20044;-47
2022/03/08 11:15:37;;;;;;;30.30;13.85;;;;;;;-0.33;100.00;94783.13;5104908;27;20093;-48